sensor_id;sensor_type;location;lat;lon;timestamp;P1;durP1;ratioP1;P2;durP2;ratioP2
14738;SDS011;7461;52.440;13.540;2023-05-31T00:00:00;5.07;;;2.80;;
14738;SDS011;7461;52.440;13.540;2023-05-31T00:02:28;2.15;;;1.83;;
14738;SDS011;7461;52.440;13.540;2023-05-31T00:04:57;7.95;;;3.30;;
14738;SDS011;7461;52.440;13.540;2023-05-31T00:07:23;2.20;;;2.08;;
14738;SDS011;7461;52.440;13.540;2023-05-31T00:09:50;3.05;;;2.45;;
14738;SDS011;7461;52.440;13.540;2023-05-31T00:12:17;2.67;;;2.15;;
14738;SDS011;7461;52.440;13.540;2023-05-31T00:14:45;2.30;;;2.10;;
14738;SDS011;7461;52.440;13.540;2023-05-31T00:17:12;5.18;;;2.95;;
14738;SDS011;7461;52.440;13.540;2023-05-31T00:19:39;1.80;;;1.70;;
14738;SDS011;7461;52.440;13.540;2023-05-31T00:22:07;3.40;;;3.10;;
14738;SDS011;7461;52.440;13.540;2023-05-31T00:24:35;2.10;;;1.75;;
14738;SDS011;7461;52.440;13.540;2023-05-31T00:27:01;3.58;;;2.13;;
14738;SDS011;7461;52.440;13.540;2023-05-31T00:29:29;2.67;;;2.38;;
14738;SDS011;7461;52.440;13.540;2023-05-31T00:31:55;2.95;;;2.40;;
14738;SDS011;7461;52.440;13.540;2023-05-31T00:34:22;2.95;;;2.17;;
14738;SDS011;7461;52.440;13.540;2023-05-31T00:42:48;2.83;;;2.63;;
14738;SDS011;7461;52.440;13.540;2023-05-31T00:45:15;2.95;;;2.53;;
14738;SDS011;7461;52.440;13.540;2023-05-31T00:47:42;4.88;;;2.42;;
14738;SDS011;7461;52.440;13.540;2023-05-31T00:50:09;3.30;;;2.90;;
14738;SDS011;7461;52.440;13.540;2023-05-31T00:52:36;3.28;;;3.08;;
14738;SDS011;7461;52.440;13.540;2023-05-31T00:55:03;2.97;;;2.78;;
14738;SDS011;7461;52.440;13.540;2023-05-31T00:57:32;3.45;;;2.85;;
14738;SDS011;7461;52.440;13.540;2023-05-31T01:00:00;4.10;;;2.63;;
14738;SDS011;7461;52.440;13.540;2023-05-31T01:02:29;3.63;;;2.88;;
14738;SDS011;7461;52.440;13.540;2023-05-31T01:04:58;2.53;;;2.33;;
14738;SDS011;7461;52.440;13.540;2023-05-31T01:07:25;3.85;;;2.45;;
14738;SDS011;7461;52.440;13.540;2023-05-31T01:09:52;2.75;;;2.53;;
14738;SDS011;7461;52.440;13.540;2023-05-31T01:12:33;3.08;;;2.83;;
14738;SDS011;7461;52.440;13.540;2023-05-31T01:15:08;4.45;;;3.30;;
14738;SDS011;7461;52.440;13.540;2023-05-31T01:17:42;2.85;;;2.40;;
14738;SDS011;7461;52.440;13.540;2023-05-31T01:20:14;2.92;;;2.05;;
14738;SDS011;7461;52.440;13.540;2023-05-31T01:22:45;2.25;;;2.10;;
14738;SDS011;7461;52.440;13.540;2023-05-31T01:25:26;2.88;;;2.65;;
14738;SDS011;7461;52.440;13.540;2023-05-31T01:27:59;2.78;;;2.55;;
14738;SDS011;7461;52.440;13.540;2023-05-31T01:30:30;4.65;;;2.85;;
14738;SDS011;7461;52.440;13.540;2023-05-31T01:32:59;4.15;;;2.30;;
14738;SDS011;7461;52.440;13.540;2023-05-31T01:35:26;2.75;;;2.28;;
14738;SDS011;7461;52.440;13.540;2023-05-31T01:37:53;3.75;;;3.08;;
14738;SDS011;7461;52.440;13.540;2023-05-31T01:40:20;3.47;;;2.70;;
14738;SDS011;7461;52.440;13.540;2023-05-31T01:42:47;3.03;;;2.75;;
14738;SDS011;7461;52.440;13.540;2023-05-31T01:45:17;3.20;;;2.92;;
14738;SDS011;7461;52.440;13.540;2023-05-31T01:47:45;2.42;;;2.22;;
14738;SDS011;7461;52.440;13.540;2023-05-31T01:50:14;2.70;;;1.85;;
14738;SDS011;7461;52.440;13.540;2023-05-31T01:52:44;3.55;;;3.25;;
14738;SDS011;7461;52.440;13.540;2023-05-31T01:55:11;2.33;;;2.17;;
14738;SDS011;7461;52.440;13.540;2023-05-31T01:57:38;3.10;;;2.90;;
14738;SDS011;7461;52.440;13.540;2023-05-31T02:00:09;3.05;;;2.55;;
14738;SDS011;7461;52.440;13.540;2023-05-31T02:02:39;3.63;;;2.63;;
14738;SDS011;7461;52.440;13.540;2023-05-31T02:05:08;5.85;;;2.90;;
14738;SDS011;7461;52.440;13.540;2023-05-31T02:07:37;4.80;;;3.50;;
14738;SDS011;7461;52.440;13.540;2023-05-31T02:10:06;3.45;;;2.72;;
14738;SDS011;7461;52.440;13.540;2023-05-31T02:12:34;3.35;;;2.88;;
14738;SDS011;7461;52.440;13.540;2023-05-31T02:15:01;3.45;;;3.00;;
14738;SDS011;7461;52.440;13.540;2023-05-31T02:17:29;3.70;;;3.13;;
14738;SDS011;7461;52.440;13.540;2023-05-31T02:19:59;5.20;;;3.65;;
14738;SDS011;7461;52.440;13.540;2023-05-31T02:22:27;4.32;;;2.78;;
14738;SDS011;7461;52.440;13.540;2023-05-31T02:24:54;3.17;;;2.88;;
14738;SDS011;7461;52.440;13.540;2023-05-31T02:27:21;4.82;;;3.05;;
14738;SDS011;7461;52.440;13.540;2023-05-31T02:29:48;3.60;;;2.30;;
14738;SDS011;7461;52.440;13.540;2023-05-31T02:32:15;5.07;;;2.75;;
14738;SDS011;7461;52.440;13.540;2023-05-31T02:34:42;5.13;;;2.83;;
14738;SDS011;7461;52.440;13.540;2023-05-31T02:37:11;2.58;;;2.38;;
14738;SDS011;7461;52.440;13.540;2023-05-31T02:43:00;2.75;;;2.55;;
14738;SDS011;7461;52.440;13.540;2023-05-31T02:45:27;3.95;;;3.63;;
14738;SDS011;7461;52.440;13.540;2023-05-31T02:53:45;8.50;;;3.60;;
14738;SDS011;7461;52.440;13.540;2023-05-31T02:56:12;2.97;;;2.60;;
14738;SDS011;7461;52.440;13.540;2023-05-31T02:58:39;5.63;;;3.80;;
14738;SDS011;7461;52.440;13.540;2023-05-31T03:01:06;2.97;;;2.80;;
14738;SDS011;7461;52.440;13.540;2023-05-31T03:03:33;6.85;;;3.08;;
14738;SDS011;7461;52.440;13.540;2023-05-31T03:06:00;4.95;;;3.58;;
14738;SDS011;7461;52.440;13.540;2023-05-31T03:08:29;3.03;;;2.78;;
14738;SDS011;7461;52.440;13.540;2023-05-31T03:10:58;4.05;;;3.65;;
14738;SDS011;7461;52.440;13.540;2023-05-31T03:13:25;4.15;;;3.05;;
14738;SDS011;7461;52.440;13.540;2023-05-31T03:15:51;3.47;;;3.17;;
14738;SDS011;7461;52.440;13.540;2023-05-31T03:18:19;3.17;;;2.88;;
14738;SDS011;7461;52.440;13.540;2023-05-31T03:20:46;3.15;;;2.85;;
14738;SDS011;7461;52.440;13.540;2023-05-31T03:23:13;3.03;;;2.55;;
14738;SDS011;7461;52.440;13.540;2023-05-31T03:25:40;3.15;;;2.95;;
14738;SDS011;7461;52.440;13.540;2023-05-31T03:28:08;5.97;;;3.47;;
14738;SDS011;7461;52.440;13.540;2023-05-31T03:30:36;3.53;;;3.22;;
14738;SDS011;7461;52.440;13.540;2023-05-31T03:33:02;2.88;;;2.67;;
14738;SDS011;7461;52.440;13.540;2023-05-31T03:35:29;6.60;;;4.05;;
14738;SDS011;7461;52.440;13.540;2023-05-31T03:37:56;5.20;;;3.42;;
14738;SDS011;7461;52.440;13.540;2023-05-31T03:40:23;3.75;;;3.45;;
14738;SDS011;7461;52.440;13.540;2023-05-31T03:42:50;5.07;;;3.30;;
14738;SDS011;7461;52.440;13.540;2023-05-31T03:45:18;3.67;;;3.38;;
14738;SDS011;7461;52.440;13.540;2023-05-31T03:47:45;3.25;;;2.97;;
14738;SDS011;7461;52.440;13.540;2023-05-31T03:50:12;5.55;;;2.92;;
14738;SDS011;7461;52.440;13.540;2023-05-31T03:52:39;3.40;;;3.10;;
14738;SDS011;7461;52.440;13.540;2023-05-31T03:55:06;4.90;;;3.08;;
14738;SDS011;7461;52.440;13.540;2023-05-31T03:57:34;3.97;;;2.72;;
14738;SDS011;7461;52.440;13.540;2023-05-31T04:00:01;3.28;;;2.97;;
14738;SDS011;7461;52.440;13.540;2023-05-31T04:02:29;3.53;;;3.25;;
14738;SDS011;7461;52.440;13.540;2023-05-31T04:04:56;4.40;;;3.53;;
14738;SDS011;7461;52.440;13.540;2023-05-31T04:07:23;5.30;;;3.53;;
14738;SDS011;7461;52.440;13.540;2023-05-31T04:09:51;5.57;;;2.65;;
14738;SDS011;7461;52.440;13.540;2023-05-31T04:12:18;7.47;;;3.42;;
14738;SDS011;7461;52.440;13.540;2023-05-31T04:14:44;7.30;;;3.33;;
14738;SDS011;7461;52.440;13.540;2023-05-31T04:17:11;5.95;;;3.30;;
14738;SDS011;7461;52.440;13.540;2023-05-31T04:19:40;3.15;;;2.92;;
14738;SDS011;7461;52.440;13.540;2023-05-31T04:22:06;3.30;;;3.10;;
14738;SDS011;7461;52.440;13.540;2023-05-31T04:24:33;4.38;;;4.00;;
14738;SDS011;7461;52.440;13.540;2023-05-31T04:27:00;3.40;;;3.10;;
14738;SDS011;7461;52.440;13.540;2023-05-31T04:29:28;4.63;;;4.05;;
14738;SDS011;7461;52.440;13.540;2023-05-31T04:31:55;4.30;;;3.03;;
14738;SDS011;7461;52.440;13.540;2023-05-31T04:34:23;5.07;;;3.85;;
14738;SDS011;7461;52.440;13.540;2023-05-31T04:36:52;4.38;;;3.97;;
14738;SDS011;7461;52.440;13.540;2023-05-31T04:39:20;4.38;;;3.97;;
14738;SDS011;7461;52.440;13.540;2023-05-31T04:41:48;8.73;;;3.38;;
14738;SDS011;7461;52.440;13.540;2023-05-31T04:44:15;3.33;;;3.05;;
14738;SDS011;7461;52.440;13.540;2023-05-31T04:46:43;3.67;;;3.38;;
14738;SDS011;7461;52.440;13.540;2023-05-31T04:49:11;3.78;;;3.47;;
14738;SDS011;7461;52.440;13.540;2023-05-31T04:51:37;5.38;;;3.58;;
14738;SDS011;7461;52.440;13.540;2023-05-31T04:54:06;4.75;;;3.53;;
14738;SDS011;7461;52.440;13.540;2023-05-31T04:56:33;3.75;;;3.08;;
14738;SDS011;7461;52.440;13.540;2023-05-31T05:01:35;4.63;;;2.83;;
14738;SDS011;7461;52.440;13.540;2023-05-31T05:04:02;3.35;;;3.05;;
14738;SDS011;7461;52.440;13.540;2023-05-31T05:06:29;5.50;;;2.72;;
14738;SDS011;7461;52.440;13.540;2023-05-31T05:08:56;3.53;;;3.05;;
14738;SDS011;7461;52.440;13.540;2023-05-31T05:11:24;2.88;;;2.55;;
14738;SDS011;7461;52.440;13.540;2023-05-31T05:16:26;7.65;;;4.35;;
14738;SDS011;7461;52.440;13.540;2023-05-31T05:18:53;6.22;;;3.88;;
14738;SDS011;7461;52.440;13.540;2023-05-31T05:21:20;4.70;;;3.03;;
14738;SDS011;7461;52.440;13.540;2023-05-31T05:23:47;6.35;;;3.55;;
14738;SDS011;7461;52.440;13.540;2023-05-31T05:26:14;9.82;;;4.22;;
14738;SDS011;7461;52.440;13.540;2023-05-31T05:28:43;5.20;;;4.80;;
14738;SDS011;7461;52.440;13.540;2023-05-31T05:31:13;4.85;;;2.95;;
14738;SDS011;7461;52.440;13.540;2023-05-31T05:33:40;3.40;;;3.05;;
14738;SDS011;7461;52.440;13.540;2023-05-31T05:36:07;3.25;;;2.92;;
14738;SDS011;7461;52.440;13.540;2023-05-31T05:38:35;2.80;;;2.60;;
14738;SDS011;7461;52.440;13.540;2023-05-31T05:41:01;7.05;;;4.38;;
14738;SDS011;7461;52.440;13.540;2023-05-31T05:43:28;5.70;;;4.30;;
14738;SDS011;7461;52.440;13.540;2023-05-31T05:45:57;6.55;;;3.10;;
14738;SDS011;7461;52.440;13.540;2023-05-31T05:48:24;6.05;;;3.47;;
14738;SDS011;7461;52.440;13.540;2023-05-31T05:50:51;4.45;;;3.30;;
14738;SDS011;7461;52.440;13.540;2023-05-31T05:53:18;6.47;;;3.42;;
14738;SDS011;7461;52.440;13.540;2023-05-31T05:55:47;3.78;;;3.45;;
14738;SDS011;7461;52.440;13.540;2023-05-31T05:58:16;6.07;;;3.70;;
14738;SDS011;7461;52.440;13.540;2023-05-31T06:00:43;3.45;;;3.10;;
14738;SDS011;7461;52.440;13.540;2023-05-31T06:03:12;4.28;;;2.53;;
14738;SDS011;7461;52.440;13.540;2023-05-31T06:05:40;3.60;;;3.35;;
14738;SDS011;7461;52.440;13.540;2023-05-31T06:08:08;4.20;;;3.25;;
14738;SDS011;7461;52.440;13.540;2023-05-31T06:10:35;6.18;;;3.80;;
14738;SDS011;7461;52.440;13.540;2023-05-31T06:13:02;7.28;;;3.22;;
14738;SDS011;7461;52.440;13.540;2023-05-31T06:15:31;4.30;;;2.60;;
14738;SDS011;7461;52.440;13.540;2023-05-31T06:17:57;5.80;;;3.60;;
14738;SDS011;7461;52.440;13.540;2023-05-31T06:20:26;4.35;;;3.25;;
14738;SDS011;7461;52.440;13.540;2023-05-31T06:22:53;4.93;;;2.88;;
14738;SDS011;7461;52.440;13.540;2023-05-31T06:25:21;3.78;;;3.22;;
14738;SDS011;7461;52.440;13.540;2023-05-31T06:27:49;3.40;;;3.05;;
14738;SDS011;7461;52.440;13.540;2023-05-31T06:30:16;4.85;;;3.05;;
14738;SDS011;7461;52.440;13.540;2023-05-31T06:32:43;3.28;;;2.97;;
14738;SDS011;7461;52.440;13.540;2023-05-31T06:35:10;3.80;;;3.47;;
14738;SDS011;7461;52.440;13.540;2023-05-31T06:37:38;5.45;;;3.83;;
14738;SDS011;7461;52.440;13.540;2023-05-31T06:40:05;3.42;;;3.13;;
14738;SDS011;7461;52.440;13.540;2023-05-31T06:42:34;4.80;;;2.83;;
14738;SDS011;7461;52.440;13.540;2023-05-31T06:45:01;4.07;;;2.45;;
14738;SDS011;7461;52.440;13.540;2023-05-31T06:47:29;4.68;;;4.28;;
14738;SDS011;7461;52.440;13.540;2023-05-31T06:49:55;5.28;;;3.15;;
14738;SDS011;7461;52.440;13.540;2023-05-31T06:52:22;3.83;;;3.28;;
14738;SDS011;7461;52.440;13.540;2023-05-31T06:54:51;6.28;;;4.18;;
14738;SDS011;7461;52.440;13.540;2023-05-31T06:57:18;4.28;;;3.30;;
14738;SDS011;7461;52.440;13.540;2023-05-31T06:59:45;5.45;;;3.28;;
14738;SDS011;7461;52.440;13.540;2023-05-31T07:02:12;3.28;;;3.08;;
14738;SDS011;7461;52.440;13.540;2023-05-31T07:04:39;3.95;;;3.65;;
14738;SDS011;7461;52.440;13.540;2023-05-31T07:07:06;8.60;;;3.22;;
14738;SDS011;7461;52.440;13.540;2023-05-31T07:09:34;4.97;;;3.63;;
14738;SDS011;7461;52.440;13.540;2023-05-31T07:12:03;3.70;;;2.70;;
14738;SDS011;7461;52.440;13.540;2023-05-31T07:14:30;4.03;;;3.03;;
14738;SDS011;7461;52.440;13.540;2023-05-31T07:16:57;4.82;;;3.22;;
14738;SDS011;7461;52.440;13.540;2023-05-31T07:19:25;5.65;;;3.35;;
14738;SDS011;7461;52.440;13.540;2023-05-31T07:21:54;6.38;;;2.97;;
14738;SDS011;7461;52.440;13.540;2023-05-31T07:24:21;3.38;;;3.15;;
14738;SDS011;7461;52.440;13.540;2023-05-31T07:26:48;2.97;;;2.75;;
14738;SDS011;7461;52.440;13.540;2023-05-31T07:29:16;6.32;;;3.10;;
14738;SDS011;7461;52.440;13.540;2023-05-31T07:31:43;5.13;;;3.50;;
14738;SDS011;7461;52.440;13.540;2023-05-31T07:34:10;2.92;;;2.70;;
14738;SDS011;7461;52.440;13.540;2023-05-31T07:36:37;4.68;;;3.38;;
14738;SDS011;7461;52.440;13.540;2023-05-31T07:39:05;6.32;;;2.90;;
14738;SDS011;7461;52.440;13.540;2023-05-31T07:41:35;2.67;;;2.47;;
14738;SDS011;7461;52.440;13.540;2023-05-31T07:44:02;4.93;;;3.25;;
14738;SDS011;7461;52.440;13.540;2023-05-31T07:46:31;6.07;;;2.35;;
14738;SDS011;7461;52.440;13.540;2023-05-31T07:48:58;4.68;;;2.65;;
14738;SDS011;7461;52.440;13.540;2023-05-31T07:51:27;7.85;;;3.28;;
14738;SDS011;7461;52.440;13.540;2023-05-31T07:53:54;4.70;;;3.15;;
14738;SDS011;7461;52.440;13.540;2023-05-31T07:56:21;4.40;;;3.20;;
14738;SDS011;7461;52.440;13.540;2023-05-31T07:58:49;4.13;;;2.85;;
14738;SDS011;7461;52.440;13.540;2023-05-31T08:01:16;3.78;;;2.97;;
14738;SDS011;7461;52.440;13.540;2023-05-31T08:03:45;6.47;;;3.90;;
14738;SDS011;7461;52.440;13.540;2023-05-31T08:06:11;9.60;;;3.70;;
14738;SDS011;7461;52.440;13.540;2023-05-31T08:08:38;6.38;;;2.63;;
14738;SDS011;7461;52.440;13.540;2023-05-31T08:11:07;6.95;;;4.20;;
14738;SDS011;7461;52.440;13.540;2023-05-31T08:13:34;3.80;;;2.33;;
14738;SDS011;7461;52.440;13.540;2023-05-31T08:16:02;5.35;;;3.25;;
14738;SDS011;7461;52.440;13.540;2023-05-31T08:18:30;3.95;;;2.60;;
14738;SDS011;7461;52.440;13.540;2023-05-31T08:20:58;5.72;;;3.20;;
14738;SDS011;7461;52.440;13.540;2023-05-31T08:23:25;4.75;;;2.83;;
14738;SDS011;7461;52.440;13.540;2023-05-31T08:25:54;6.15;;;3.38;;
14738;SDS011;7461;52.440;13.540;2023-05-31T08:28:21;5.95;;;3.20;;
14738;SDS011;7461;52.440;13.540;2023-05-31T08:30:48;4.47;;;3.15;;
14738;SDS011;7461;52.440;13.540;2023-05-31T08:33:15;7.03;;;3.35;;
14738;SDS011;7461;52.440;13.540;2023-05-31T08:35:42;3.83;;;3.15;;
14738;SDS011;7461;52.440;13.540;2023-05-31T08:38:10;4.93;;;3.72;;
14738;SDS011;7461;52.440;13.540;2023-05-31T08:40:38;5.63;;;3.55;;
14738;SDS011;7461;52.440;13.540;2023-05-31T08:43:06;5.38;;;4.55;;
14738;SDS011;7461;52.440;13.540;2023-05-31T08:45:40;4.15;;;3.50;;
14738;SDS011;7461;52.440;13.540;2023-05-31T08:48:09;7.57;;;3.17;;
14738;SDS011;7461;52.440;13.540;2023-05-31T08:50:40;6.55;;;3.90;;
14738;SDS011;7461;52.440;13.540;2023-05-31T08:53:09;8.38;;;4.65;;
14738;SDS011;7461;52.440;13.540;2023-05-31T08:55:37;5.57;;;3.60;;
14738;SDS011;7461;52.440;13.540;2023-05-31T08:58:04;3.88;;;3.47;;
14738;SDS011;7461;52.440;13.540;2023-05-31T09:00:32;4.20;;;3.22;;
14738;SDS011;7461;52.440;13.540;2023-05-31T09:03:03;3.47;;;3.10;;
14738;SDS011;7461;52.440;13.540;2023-05-31T09:05:32;6.55;;;4.57;;
14738;SDS011;7461;52.440;13.540;2023-05-31T09:08:00;3.22;;;2.92;;
14738;SDS011;7461;52.440;13.540;2023-05-31T09:10:28;4.18;;;3.10;;
14738;SDS011;7461;52.440;13.540;2023-05-31T09:12:56;3.95;;;3.47;;
14738;SDS011;7461;52.440;13.540;2023-05-31T09:15:23;5.05;;;2.90;;
14738;SDS011;7461;52.440;13.540;2023-05-31T09:17:52;5.88;;;2.95;;
14738;SDS011;7461;52.440;13.540;2023-05-31T09:20:27;2.67;;;2.47;;
14738;SDS011;7461;52.440;13.540;2023-05-31T09:23:01;3.47;;;3.20;;
14738;SDS011;7461;52.440;13.540;2023-05-31T09:25:31;5.25;;;2.53;;
14738;SDS011;7461;52.440;13.540;2023-05-31T09:28:09;5.53;;;3.30;;
14738;SDS011;7461;52.440;13.540;2023-05-31T09:30:37;4.07;;;2.78;;
14738;SDS011;7461;52.440;13.540;2023-05-31T09:33:04;3.45;;;2.88;;
14738;SDS011;7461;52.440;13.540;2023-05-31T09:35:31;3.00;;;2.80;;
14738;SDS011;7461;52.440;13.540;2023-05-31T09:37:58;5.38;;;2.70;;
14738;SDS011;7461;52.440;13.540;2023-05-31T09:40:32;4.20;;;3.40;;
14738;SDS011;7461;52.440;13.540;2023-05-31T09:43:00;2.97;;;2.78;;
14738;SDS011;7461;52.440;13.540;2023-05-31T09:45:27;3.30;;;2.78;;
14738;SDS011;7461;52.440;13.540;2023-05-31T09:47:54;4.75;;;2.70;;
14738;SDS011;7461;52.440;13.540;2023-05-31T09:50:22;2.75;;;2.50;;
14738;SDS011;7461;52.440;13.540;2023-05-31T09:52:54;3.30;;;3.00;;
14738;SDS011;7461;52.440;13.540;2023-05-31T09:55:22;5.47;;;3.35;;
14738;SDS011;7461;52.440;13.540;2023-05-31T09:57:52;5.32;;;2.55;;
14738;SDS011;7461;52.440;13.540;2023-05-31T10:00:22;5.43;;;3.05;;
14738;SDS011;7461;52.440;13.540;2023-05-31T10:02:52;2.75;;;2.53;;
14738;SDS011;7461;52.440;13.540;2023-05-31T10:05:20;4.55;;;2.72;;
14738;SDS011;7461;52.440;13.540;2023-05-31T10:07:48;3.85;;;3.03;;
14738;SDS011;7461;52.440;13.540;2023-05-31T10:10:16;2.88;;;2.33;;
14738;SDS011;7461;52.440;13.540;2023-05-31T10:12:48;2.40;;;2.20;;
14738;SDS011;7461;52.440;13.540;2023-05-31T10:15:18;4.55;;;3.35;;
14738;SDS011;7461;52.440;13.540;2023-05-31T10:17:50;3.72;;;2.75;;
14738;SDS011;7461;52.440;13.540;2023-05-31T10:20:23;3.92;;;3.08;;
14738;SDS011;7461;52.440;13.540;2023-05-31T10:22:54;3.22;;;2.92;;
14738;SDS011;7461;52.440;13.540;2023-05-31T10:25:27;6.03;;;3.40;;
14738;SDS011;7461;52.440;13.540;2023-05-31T10:27:57;4.20;;;2.67;;
14738;SDS011;7461;52.440;13.540;2023-05-31T10:30:30;3.80;;;3.42;;
14738;SDS011;7461;52.440;13.540;2023-05-31T10:33:00;5.28;;;2.70;;
14738;SDS011;7461;52.440;13.540;2023-05-31T10:35:32;8.45;;;2.97;;
14738;SDS011;7461;52.440;13.540;2023-05-31T10:37:59;5.07;;;3.00;;
14738;SDS011;7461;52.440;13.540;2023-05-31T10:40:30;2.08;;;1.88;;
14738;SDS011;7461;52.440;13.540;2023-05-31T10:43:03;5.40;;;3.35;;
14738;SDS011;7461;52.440;13.540;2023-05-31T10:45:37;4.55;;;2.90;;
14738;SDS011;7461;52.440;13.540;2023-05-31T10:48:09;4.32;;;2.92;;
14738;SDS011;7461;52.440;13.540;2023-05-31T10:50:53;6.35;;;2.83;;
14738;SDS011;7461;52.440;13.540;2023-05-31T10:53:21;3.72;;;2.90;;
14738;SDS011;7461;52.440;13.540;2023-05-31T10:55:48;3.30;;;2.63;;
14738;SDS011;7461;52.440;13.540;2023-05-31T10:58:25;2.38;;;2.17;;
14738;SDS011;7461;52.440;13.540;2023-05-31T11:00:55;2.50;;;2.30;;
14738;SDS011;7461;52.440;13.540;2023-05-31T11:03:23;8.63;;;2.70;;
14738;SDS011;7461;52.440;13.540;2023-05-31T11:05:55;2.25;;;2.15;;
14738;SDS011;7461;52.440;13.540;2023-05-31T11:08:24;2.30;;;2.10;;
14738;SDS011;7461;52.440;13.540;2023-05-31T11:10:51;2.53;;;2.33;;
14738;SDS011;7461;52.440;13.540;2023-05-31T11:13:19;3.33;;;2.20;;
14738;SDS011;7461;52.440;13.540;2023-05-31T11:15:46;5.07;;;2.85;;
14738;SDS011;7461;52.440;13.540;2023-05-31T11:18:21;5.80;;;3.10;;
14738;SDS011;7461;52.440;13.540;2023-05-31T11:20:49;3.10;;;2.80;;
14738;SDS011;7461;52.440;13.540;2023-05-31T11:23:23;2.80;;;2.17;;
14738;SDS011;7461;52.440;13.540;2023-05-31T11:26:14;2.03;;;1.90;;
14738;SDS011;7461;52.440;13.540;2023-05-31T11:28:55;3.08;;;1.83;;
14738;SDS011;7461;52.440;13.540;2023-05-31T11:34:28;2.42;;;2.22;;
14738;SDS011;7461;52.440;13.540;2023-05-31T11:36:58;3.28;;;2.38;;
14738;SDS011;7461;52.440;13.540;2023-05-31T11:39:27;3.05;;;2.38;;
14738;SDS011;7461;52.440;13.540;2023-05-31T11:41:55;4.13;;;2.42;;
14738;SDS011;7461;52.440;13.540;2023-05-31T11:44:26;4.15;;;2.60;;
14738;SDS011;7461;52.440;13.540;2023-05-31T11:46:56;2.70;;;1.77;;
14738;SDS011;7461;52.440;13.540;2023-05-31T11:49:29;2.67;;;1.58;;
14738;SDS011;7461;52.440;13.540;2023-05-31T11:51:58;4.65;;;2.35;;
14738;SDS011;7461;52.440;13.540;2023-05-31T11:54:26;4.72;;;2.55;;
14738;SDS011;7461;52.440;13.540;2023-05-31T11:57:01;2.45;;;2.25;;
14738;SDS011;7461;52.440;13.540;2023-05-31T11:59:30;2.22;;;2.03;;
14738;SDS011;7461;52.440;13.540;2023-05-31T12:01:59;3.30;;;2.42;;
14738;SDS011;7461;52.440;13.540;2023-05-31T12:04:31;3.22;;;2.60;;
14738;SDS011;7461;52.440;13.540;2023-05-31T12:07:00;2.20;;;1.73;;
14738;SDS011;7461;52.440;13.540;2023-05-31T12:09:28;4.43;;;2.28;;
14738;SDS011;7461;52.440;13.540;2023-05-31T12:11:55;3.40;;;2.05;;
14738;SDS011;7461;52.440;13.540;2023-05-31T12:14:23;4.97;;;2.65;;
14738;SDS011;7461;52.440;13.540;2023-05-31T12:16:51;2.13;;;1.90;;
14738;SDS011;7461;52.440;13.540;2023-05-31T12:19:19;3.20;;;2.10;;
14738;SDS011;7461;52.440;13.540;2023-05-31T12:21:47;1.92;;;1.77;;
14738;SDS011;7461;52.440;13.540;2023-05-31T12:24:15;1.75;;;1.65;;
14738;SDS011;7461;52.440;13.540;2023-05-31T12:26:43;1.10;;;1.10;;
14738;SDS011;7461;52.440;13.540;2023-05-31T12:29:13;1.55;;;1.45;;
14738;SDS011;7461;52.440;13.540;2023-05-31T12:31:40;2.10;;;2.00;;
14738;SDS011;7461;52.440;13.540;2023-05-31T12:34:08;1.67;;;1.58;;
14738;SDS011;7461;52.440;13.540;2023-05-31T12:36:40;1.63;;;1.42;;
14738;SDS011;7461;52.440;13.540;2023-05-31T12:39:09;1.77;;;1.67;;
14738;SDS011;7461;52.440;13.540;2023-05-31T12:41:38;1.70;;;1.60;;
14738;SDS011;7461;52.440;13.540;2023-05-31T12:44:08;4.03;;;1.77;;
14738;SDS011;7461;52.440;13.540;2023-05-31T12:46:38;1.40;;;1.30;;
14738;SDS011;7461;52.440;13.540;2023-05-31T12:49:09;2.58;;;1.60;;
14738;SDS011;7461;52.440;13.540;2023-05-31T12:51:41;2.17;;;1.65;;
14738;SDS011;7461;52.440;13.540;2023-05-31T12:54:11;3.10;;;1.60;;
14738;SDS011;7461;52.440;13.540;2023-05-31T12:56:38;1.15;;;1.15;;
14738;SDS011;7461;52.440;13.540;2023-05-31T12:59:06;1.45;;;1.35;;
14738;SDS011;7461;52.440;13.540;2023-05-31T13:01:33;1.42;;;1.33;;
14738;SDS011;7461;52.440;13.540;2023-05-31T13:04:03;1.60;;;1.50;;
14738;SDS011;7461;52.440;13.540;2023-05-31T13:06:31;1.92;;;1.80;;
14738;SDS011;7461;52.440;13.540;2023-05-31T13:08:58;1.67;;;1.20;;
14738;SDS011;7461;52.440;13.540;2023-05-31T13:11:26;2.72;;;1.60;;
14738;SDS011;7461;52.440;13.540;2023-05-31T13:13:53;1.58;;;1.48;;
14738;SDS011;7461;52.440;13.540;2023-05-31T13:16:20;1.90;;;1.02;;
14738;SDS011;7461;52.440;13.540;2023-05-31T13:18:48;1.90;;;1.52;;
14738;SDS011;7461;52.440;13.540;2023-05-31T13:21:15;1.33;;;1.23;;
14738;SDS011;7461;52.440;13.540;2023-05-31T13:23:42;1.52;;;1.42;;
14738;SDS011;7461;52.440;13.540;2023-05-31T13:26:09;1.65;;;1.45;;
14738;SDS011;7461;52.440;13.540;2023-05-31T13:28:37;2.67;;;1.45;;
14738;SDS011;7461;52.440;13.540;2023-05-31T13:31:04;1.73;;;1.63;;
14738;SDS011;7461;52.440;13.540;2023-05-31T13:33:32;1.70;;;1.60;;
14738;SDS011;7461;52.440;13.540;2023-05-31T13:35:59;1.33;;;1.23;;
14738;SDS011;7461;52.440;13.540;2023-05-31T13:38:26;1.15;;;1.10;;
14738;SDS011;7461;52.440;13.540;2023-05-31T13:40:53;1.65;;;1.40;;
14738;SDS011;7461;52.440;13.540;2023-05-31T13:43:20;3.63;;;1.73;;
14738;SDS011;7461;52.440;13.540;2023-05-31T13:45:50;1.63;;;1.52;;
14738;SDS011;7461;52.440;13.540;2023-05-31T13:48:17;1.98;;;1.60;;
14738;SDS011;7461;52.440;13.540;2023-05-31T13:50:44;1.17;;;1.17;;
14738;SDS011;7461;52.440;13.540;2023-05-31T13:53:11;1.45;;;1.35;;
14738;SDS011;7461;52.440;13.540;2023-05-31T13:55:38;1.40;;;1.30;;
14738;SDS011;7461;52.440;13.540;2023-05-31T13:58:05;1.77;;;1.67;;
14738;SDS011;7461;52.440;13.540;2023-05-31T14:00:32;1.65;;;1.55;;
14738;SDS011;7461;52.440;13.540;2023-05-31T14:03:01;3.40;;;1.50;;
14738;SDS011;7461;52.440;13.540;2023-05-31T14:05:28;2.90;;;1.17;;
14738;SDS011;7461;52.440;13.540;2023-05-31T14:07:55;2.25;;;1.15;;
14738;SDS011;7461;52.440;13.540;2023-05-31T14:10:23;2.70;;;1.60;;
14738;SDS011;7461;52.440;13.540;2023-05-31T14:12:50;1.88;;;1.77;;
14738;SDS011;7461;52.440;13.540;2023-05-31T14:15:17;1.63;;;1.52;;
14738;SDS011;7461;52.440;13.540;2023-05-31T14:17:44;2.08;;;1.60;;
14738;SDS011;7461;52.440;13.540;2023-05-31T14:20:13;5.20;;;1.58;;
14738;SDS011;7461;52.440;13.540;2023-05-31T14:22:40;3.05;;;1.48;;
14738;SDS011;7461;52.440;13.540;2023-05-31T14:25:08;3.72;;;1.45;;
14738;SDS011;7461;52.440;13.540;2023-05-31T14:27:35;1.63;;;1.52;;
14738;SDS011;7461;52.440;13.540;2023-05-31T14:30:02;2.10;;;1.83;;
14738;SDS011;7461;52.440;13.540;2023-05-31T14:32:30;2.45;;;1.55;;
14738;SDS011;7461;52.440;13.540;2023-05-31T14:34:57;1.40;;;1.30;;
14738;SDS011;7461;52.440;13.540;2023-05-31T14:37:25;2.50;;;2.10;;
14738;SDS011;7461;52.440;13.540;2023-05-31T14:39:52;2.70;;;1.42;;
14738;SDS011;7461;52.440;13.540;2023-05-31T14:42:19;4.93;;;1.70;;
14738;SDS011;7461;52.440;13.540;2023-05-31T14:44:46;2.10;;;1.60;;
14738;SDS011;7461;52.440;13.540;2023-05-31T14:47:13;1.55;;;1.45;;
14738;SDS011;7461;52.440;13.540;2023-05-31T14:49:40;1.83;;;1.73;;
14738;SDS011;7461;52.440;13.540;2023-05-31T14:52:07;2.03;;;1.92;;
14738;SDS011;7461;52.440;13.540;2023-05-31T14:54:35;1.73;;;1.60;;
14738;SDS011;7461;52.440;13.540;2023-05-31T14:57:03;4.18;;;3.85;;
14738;SDS011;7461;52.440;13.540;2023-05-31T14:59:30;7.65;;;6.78;;
14738;SDS011;7461;52.440;13.540;2023-05-31T15:01:57;3.28;;;3.00;;
14738;SDS011;7461;52.440;13.540;2023-05-31T15:04:26;3.70;;;3.40;;
14738;SDS011;7461;52.440;13.540;2023-05-31T15:06:53;2.05;;;1.95;;
14738;SDS011;7461;52.440;13.540;2023-05-31T15:09:20;2.00;;;1.90;;
14738;SDS011;7461;52.440;13.540;2023-05-31T15:11:48;1.75;;;1.65;;
14738;SDS011;7461;52.440;13.540;2023-05-31T15:14:15;2.53;;;2.33;;
14738;SDS011;7461;52.440;13.540;2023-05-31T15:16:42;1.85;;;1.75;;